WEATHER DATA

TODAY
Time Temp. Dewp. Hum. Wind dir Wind speed Wind gust Bar. 1h Prec. 24h Prec.
00:03 13.5 9.6 77 90 0.8 2.5 1023 0.0000 0.0000
00:13 13.4 9.5 77 8 1.1 3.9 1023.1 0.0000 0.0000
00:22 13.4 9.6 78 50 0.8 2.5 1023.1 0.0000 0.0000
00:33 13.3 9.5 78 75 0.8 2.5 1023.1 0.0000 0.0000
00:43 13.3 9.5 78 45 1.1 3.1 1023.1 0.0000 0.0000
00:53 13.2 9.5 78 27 0.8 2.8 1023.2 0.0000 0.0000
01:03 13.2 9.5 78 80 0.8 3.1 1023.2 0.0000 0.0000
01:13 13.2 9.5 78 125 0.8 2.2 1023.4 0.0000 0.0000
01:23 13.2 9.5 78 71 0.8 2.2 1023.4 0.0000 0.0000
01:33 13.2 9.5 78 66 0.8 2.8 1023.4 0.0000 0.0000
01:54 13.1 9.4 78 6 1.4 4.4 1023.5 0.0000 0.0000
02:03 13.1 9.4 78 90 0.8 2.5 1023.5 0.0000 0.0000
02:13 13 9.3 78 66 0.8 1.7 1023.6 0.0000 0.0000
02:24 12.9 9.2 78 90 0.8 3.6 1023.7 0.0000 0.0000
02:34 12.8 9.1 78 65 0.8 2.2 1023.8 0.0000 0.0000
02:44 12.7 9 78 39 0.8 2.2 1023.9 0.0000 0.0000
02:54 12.6 9.1 79 18 0.8 2.2 1024 0.0000 0.0000
03:04 12.5 9 79 90 0.3 2.2 1024.1 0.0000 0.0000
03:14 12.4 8.9 79 75 0.8 1.7 1024.1 0.0000 0.0000
03:24 12.3 8.8 79 90 0.8 1.7 1024.1 0.0000 0.0000
03:35 12.1 8.6 79 90 0.3 1.7 1024.1 0.0000 0.0000
03:44 12 8.5 79 120 0.8 2.2 1024.2 0.0000 0.0000
03:54 11.9 8.4 79 101 0.8 2.2 1024.3 0.0000 0.0000
04:04 11.8 8.3 79 143 0.8 1.7 1024.3 0.0000 0.0000
04:15 11.8 8.3 79 90 0.3 1.4 1024.4 0.0000 0.0000
04:24 11.7 8.2 79 188 0.3 1.4 1024.4 0.0000 0.0000
04:34 11.6 8.1 79 135 0.3 1.1 1024.3 0.0000 0.0000
04:45 11.5 8 79 161 0.8 1.4 1024.3 0.0000 0.0000
04:55 11.3 7.8 79 171 0.8 1.7 1024.6 0.0000 0.0000
05:05 11.2 7.7 79 135 0.8 2.2 1024.5 0.0000 0.0000
05:15 11 7.3 78 122 0.8 1.7 1024.6 0.0000 0.0000
05:25 10.8 7.1 78 135 0.8 1.4 1024.5 0.0000 0.0000
05:35 10.7 7 78 166 0.8 2.5 1024.4 0.0000 0.0000
05:45 10.5 7 79 144 0.8 1.7 1024.3 0.0000 0.0000
05:56 10.4 6.9 79 135 0.3 1.1 1024.3 0.0000 0.0000
06:05 10.2 6.7 79 90 0.3 1.1 1024.3 0.0000 0.0000
06:15 10.1 6.6 79 90 0.8 1.7 1024.2 0.0000 0.0000
06:25 10 6.5 79 90 0.3 1.1 1024.2 0.0000 0.0000
06:36 9.8 6.3 79 90 0.3 2.2 1024.2 0.0000 0.0000
06:46 9.7 6.4 80 138 0.8 1.7 1024.1 0.0000 0.0000
06:55 9.5 6.2 80 159 0.8 1.7 1024.3 0.0000 0.0000
07:06 9.5 6.4 81 127 0.8 2.2 1024.3 0.0000 0.0000
07:16 9.5 6.4 81 169 0.8 2.2 1024.4 0.0000 0.0000
07:26 9.5 6.4 81 147 0.8 1.7 1024.5 0.0000 0.0000
07:36 9.6 6.5 81 156 0.3 1.7 1024.7 0.0000 0.0000
07:46 9.7 6.6 81 135 0.3 1.4 1024.8 0.0000 0.0000
07:56 9.7 6.6 81 135 0.8 1.7 1024.9 0.0000 0.0000
08:06 9.8 6.7 81 167 0.3 1.7 1024.9 0.0000 0.0000
08:17 10 6.9 81 205 1.1 2.2 1024.9 0.0000 0.0000
08:27 10.4 7.3 81 194 0.8 2.5 1025 0.0000 0.0000
08:36 10.7 7.2 79 135 0.3 1.4 1024.9 0.0000 0.0000
08:46 10.9 7.2 78 159 0.3 2.2 1024.9 0.0000 0.0000
08:57 11 7.3 78 183 1.1 2.8 1025 0.0000 0.0000
09:01 11.1 7.4 78 175 0.8 2.8 1025 0.0000 0.0000
09:11 11.4 7.9 79 147 0.8 1.4 1024.9 0.0000 0.0000
09:21 11.7 8.2 79 122 0.8 2.5 1025 0.0000 0.0000
09:31 12.4 8.5 77 192 1.1 4.2 1024.8 0.0000 0.0000
09:40 13 8.7 75 190 0.8 6.4 1024.7 0.1010 0.1000
09:51 13.4 8.3 71 195 1.1 5.3 1024.6 0.1010 0.1000
10:01 13.6 8 69 209 1.7 4.2 1024.5 0.1010 0.1000
10:11 13.6 8 69 200 1.4 3.6 1024.5 0.1010 0.1000
10:20 13.6 8 69 205 1.7 5.6 1024.4 0.1010 0.1000
10:31 13.8 8.4 70 209 2.5 5.8 1024.2 0.1010 0.1000
10:41 14.1 8.5 69 208 1.7 5 1024.1 0.0000 0.1000
10:51 14.5 8.7 68 192 1.1 3.1 1024 0.0000 0.1000
11:01 15 8.9 67 204 2.8 5.6 1023.9 0.0000 0.1000
11:11 15.2 8.9 66 215 2.2 5 1023.8 0.0000 0.1000
11:21 15.4 8.9 65 209 1.7 3.9 1023.7 0.0000 0.1000
11:31 15.8 9.2 65 203 2.2 5.3 1023.4 0.0000 0.1000
11:42 16 9.2 64 212 2.2 5 1023.3 0.0000 0.1000
11:52 16.3 9.5 64 125 0.8 3.1 1023.2 0.0000 0.1000
12:01 16.6 9.5 63 126 0.8 2.5 1022.9 0.0000 0.1000
12:11 17.1 10 63 204 1.1 3.6 1022.9 0.0000 0.1000
12:22 17.6 10.2 62 197 1.1 4.4 1022.8 0.0000 0.1000
12:32 17.9 10.3 61 205 2.2 4.4 1022.5 0.0000 0.1000
12:42 18.3 10.7 61 188 1.1 3.9 1022.4 0.0000 0.1000
12:52 18.5 10.3 59 212 1.4 3.6 1022.2 0.0000 0.1000
13:02 18.6 10.4 59 174 1.1 3.9 1022 0.0000 0.1000
13:12 18.6 10.7 60 171 1.1 4.2 1021.9 0.0000 0.1000
13:22 18.6 10.7 60 183 0.8 2.2 1021.8 0.0000 0.1000
13:33 18.6 10.7 60 135 0.8 2.2 1021.6 0.0000 0.1000
13:42 18.5 10.6 60 114 0.8 2.8 1021.6 0.0000 0.1000
13:52 18.4 10.5 60 90 0.3 1.4 1021.5 0.0000 0.1000
14:03 18.3 10.7 61 104 0.8 2.2 1021.4 0.0000 0.1000
14:13 18.1 10.7 62 135 0.8 2.5 1021.4 0.0000 0.1000
14:23 18 10.6 62 104 0.8 2.8 1021.2 0.0000 0.1000
14:32 17.8 10.7 63 90 0.3 2.5 1021.1 0.0000 0.1000
14:43 17.7 10.6 63 158 0.8 2.2 1021 0.0000 0.1000
14:53 17.5 10.4 63 90 0.3 1.4 1020.9 0.0000 0.1000
15:03 17.3 10.2 63 90 0.3 2.2 1020.9 0.0000 0.1000
15:13 17.2 10.3 64 110 0.8 1.7 1020.9 0.0000 0.1000
15:23 17 10.6 66 155 0.8 2.5 1020.8 0.0000 0.1000
15:33 16.8 10.9 68 129 0.3 1.7 1020.7 0.0000 0.1000
15:43 16.5 10.8 69 135 0.3 1.4 1020.6 0.0000 0.1000
15:54 16.3 10.8 70 176 0.3 1.4 1020.5 0.0000 0.1000
16:03 16.1 10.6 70 127 0.3 1.4 1020.5 0.0000 0.1000
16:13 15.8 10.8 72 0 0.8 1020.5 0.0000 0.1000
16:24 15.7 10.9 73 358 1.1 2.5 1020.5 0.0000 0.1000
16:34 15.5 10.9 74 6 0.8 1.7 1020.3 0.0000 0.1000
16:44 15.3 10.9 75 135 0.3 1.1 1020.3 0.0000 0.1000
16:53 15.2 11.2 77 210 0.3 1.4 1020.1 0.0000 0.1000
17:04 15 11.2 78 206 1.1 2.8 1020.1 0.0000 0.1000
17:14 14.8 11 78 203 1.1 2.5 1020 0.0000 0.1000
17:24 14.6 11 79 212 1.4 3.1 1019.8 0.0000 0.1000
17:34 14.4 11 80 207 1.7 3.9 1019.8 0.0000 0.1000
17:44 14.3 11.1 81 208 1.7 3.9 1019.7 0.0000 0.1000
17:54 14.2 11.2 82 204 1.7 4.4 1019.8 0.0000 0.1000
18:04 14.1 11.3 83 210 1.1 2.5 1019.7 0.0000 0.1000

DAY STATISTIC

2020-10-31
TEMPERATURE
AVERAGE
13.7
HIGH
18.6
13:02
LOW
9.5
06:55
PRESSURE
AVERAGE
1023.1
HIGH
1025.0
08:27
LOW
1019.7
17:44
DEWPOINT
AVERAGE
9.0
HIGH
11.3
18:04
LOW
6.2
06:55
HUMIDITY
AVERAGE
74
HIGH
83
18:04
LOW
59
12:52
WIND SPEED
AVERAGE
0.9
HIGH
2.8
11:01
WIND GUST
AVERAGE
2.6
HIGH
6.4
09:40
WIND DIRECTION
PREVAILING
SE
25.9%
N
4.6
NE
6.5
E
21.3
SE
25.9
S
25.9
SW
14.8
W
0.0
NW
0.0
PRECIPITATION
RAIN HOUR
0.1
RAIN DAY
0.1
TEMPERATURE (°C)
LOW
9.5
HIGH
18.6
AVERAGE
13.7
PRESSURE (hpa)
LOW
1019.7
HIGH
1025.0
AVERAGE
1023.1
DEVICE